Aérodrome :
LOGIN :

S'inscrire | Disclaimer

   EN    FR    IT 

 










Légende :    VFR   VFR Marginal   IFR   IFR Intensif   IFR Très Intensif
Visi : 
Plafond : 
>= 8 km
>= 3000ft
5 à 8 km
1000 à 3000 ft
1500m à 5 km
500 à 1000 ft
800 à 1500m
200 à 500 ft
< 800m
< 200 ft
Symboles :   Orages  Brouillard  Fortes neiges  Fortes précipitations  Vent > 20 kt
SIGMETs :   Divers  Orages  Givrage  Turbulence  Onde Orograph.  Cendres Volcan.







- Altitude de l'aérodrome : 90 ft
- Code IATA : NTE
- Voir les cartes d'approche


LFRS - Nantes

DERNIER METAR :
  • 170730Z AUTO 06007KT 020V080 9999 OVC020 14/12 Q1020 NOSIG

METARs EXPIRÉS :
  • 170700Z AUTO 05004KT 020V100 9999 OVC019 13/12 Q1020 NOSIG
  • 170630Z AUTO 07007KT 9999 BKN023 BKN030 BKN038 13/11 Q1020 NOSIG
  • 170600Z AUTO 07006KT 9999 BKN024 BKN029 OVC035 13/12 Q1020 NOSIG
  • 170530Z AUTO 07007KT 9999 OVC027 13/12 Q1020 NOSIG
  • 170500Z AUTO 06004KT 020V100 9999 OVC024 13/12 Q1020 NOSIG

TAF TAF LFRS
Valide du 17 à 06h jusqu'au 18 à 12h UTC


170500Z 1706/1812 08006KT 9999 BKN020
BECMG 1710/1712 VRB03KT
TEMPO 1803/1812 4000 -RA BKN010
ATIS : +33 2 40 05 12 74
Pas de NOTAMs connus pour ce terrain.



MET'MAP, la Météo Aéronautique d'un coup d'oeil ! - Copyright ORBIFLY Décembre 2007 - Disclaimer

ORBIFLY MET'MAP TEAM :

Programmation & Développement : Alexandra Zaïnal
Conception & Développement : Baudouin d'Aumeries
Co-Programmation & Développement : Marc-Olivier Méhu
Soutien technique & logistique : Manuel Goepfert

Contact : metmap@orbifly.com




SOURCES & CREDITS :

   NOAA